sensor_id;sensor_type;location;lat;lon;timestamp;P1;durP1;ratioP1;P2;durP2;ratioP2
4915;SDS011;70796;52.406;13.230;2023-08-20T00:01:14;19.63;;;16.23;;
4915;SDS011;70796;52.406;13.230;2023-08-20T00:03:41;22.17;;;15.60;;
4915;SDS011;70796;52.406;13.230;2023-08-20T00:06:10;20.90;;;16.40;;
4915;SDS011;70796;52.406;13.230;2023-08-20T00:08:36;20.03;;;15.90;;
4915;SDS011;70796;52.406;13.230;2023-08-20T00:11:03;21.00;;;16.50;;
4915;SDS011;70796;52.406;13.230;2023-08-20T00:13:31;20.83;;;17.23;;
4915;SDS011;70796;52.406;13.230;2023-08-20T00:15:57;19.90;;;16.40;;
4915;SDS011;70796;52.406;13.230;2023-08-20T00:18:24;19.13;;;17.17;;
4915;SDS011;70796;52.406;13.230;2023-08-20T00:20:51;19.47;;;15.90;;
4915;SDS011;70796;52.406;13.230;2023-08-20T00:23:18;19.03;;;15.93;;
4915;SDS011;70796;52.406;13.230;2023-08-20T00:25:45;18.63;;;16.73;;
4915;SDS011;70796;52.406;13.230;2023-08-20T00:28:11;25.77;;;16.63;;
4915;SDS011;70796;52.406;13.230;2023-08-20T00:30:37;21.70;;;16.53;;
4915;SDS011;70796;52.406;13.230;2023-08-20T00:33:04;19.03;;;16.13;;
4915;SDS011;70796;52.406;13.230;2023-08-20T00:35:31;20.53;;;17.00;;
4915;SDS011;70796;52.406;13.230;2023-08-20T00:37:58;19.17;;;17.27;;
4915;SDS011;70796;52.406;13.230;2023-08-20T00:40:25;20.33;;;15.80;;
4915;SDS011;70796;52.406;13.230;2023-08-20T00:42:52;20.10;;;16.30;;
4915;SDS011;70796;52.406;13.230;2023-08-20T00:45:20;17.30;;;14.70;;
4915;SDS011;70796;52.406;13.230;2023-08-20T00:47:46;16.10;;;14.43;;
4915;SDS011;70796;52.406;13.230;2023-08-20T00:50:13;16.37;;;14.53;;
4915;SDS011;70796;52.406;13.230;2023-08-20T00:52:40;20.17;;;13.90;;
4915;SDS011;70796;52.406;13.230;2023-08-20T00:55:10;18.93;;;15.00;;
4915;SDS011;70796;52.406;13.230;2023-08-20T00:57:37;14.43;;;12.67;;
4915;SDS011;70796;52.406;13.230;2023-08-20T01:00:04;17.43;;;12.80;;
4915;SDS011;70796;52.406;13.230;2023-08-20T01:02:36;15.10;;;12.33;;
4915;SDS011;70796;52.406;13.230;2023-08-20T01:05:05;13.53;;;12.13;;
4915;SDS011;70796;52.406;13.230;2023-08-20T01:10:13;16.23;;;13.20;;
4915;SDS011;70796;52.406;13.230;2023-08-20T01:12:45;13.33;;;11.70;;
4915;SDS011;70796;52.406;13.230;2023-08-20T01:15:12;13.97;;;11.70;;
4915;SDS011;70796;52.406;13.230;2023-08-20T01:17:42;16.17;;;12.47;;
4915;SDS011;70796;52.406;13.230;2023-08-20T01:20:09;16.03;;;11.97;;
4915;SDS011;70796;52.406;13.230;2023-08-20T01:25:18;17.17;;;11.93;;
4915;SDS011;70796;52.406;13.230;2023-08-20T01:30:33;19.00;;;10.33;;
4915;SDS011;70796;52.406;13.230;2023-08-20T01:33:00;12.13;;;10.83;;
4915;SDS011;70796;52.406;13.230;2023-08-20T01:35:28;13.93;;;12.27;;
4915;SDS011;70796;52.406;13.230;2023-08-20T01:38:01;17.80;;;13.10;;
4915;SDS011;70796;52.406;13.230;2023-08-20T01:40:28;17.73;;;11.93;;
4915;SDS011;70796;52.406;13.230;2023-08-20T01:42:55;18.77;;;11.40;;
4915;SDS011;70796;52.406;13.230;2023-08-20T01:45:21;12.73;;;10.67;;
4915;SDS011;70796;52.406;13.230;2023-08-20T01:47:48;13.30;;;11.17;;
4915;SDS011;70796;52.406;13.230;2023-08-20T01:50:14;13.77;;;11.30;;
4915;SDS011;70796;52.406;13.230;2023-08-20T01:52:41;16.93;;;12.97;;
4915;SDS011;70796;52.406;13.230;2023-08-20T01:55:08;16.23;;;11.47;;
4915;SDS011;70796;52.406;13.230;2023-08-20T01:57:34;15.77;;;11.77;;
4915;SDS011;70796;52.406;13.230;2023-08-20T02:00:02;11.90;;;10.60;;
4915;SDS011;70796;52.406;13.230;2023-08-20T02:02:38;13.63;;;11.20;;
4915;SDS011;70796;52.406;13.230;2023-08-20T02:05:05;14.70;;;11.50;;
4915;SDS011;70796;52.406;13.230;2023-08-20T02:07:31;13.93;;;11.33;;
4915;SDS011;70796;52.406;13.230;2023-08-20T02:09:58;15.87;;;11.60;;
4915;SDS011;70796;52.406;13.230;2023-08-20T02:12:25;15.13;;;11.17;;
4915;SDS011;70796;52.406;13.230;2023-08-20T02:14:53;19.67;;;11.30;;
4915;SDS011;70796;52.406;13.230;2023-08-20T02:17:21;13.90;;;11.00;;
4915;SDS011;70796;52.406;13.230;2023-08-20T02:19:49;17.73;;;11.00;;
4915;SDS011;70796;52.406;13.230;2023-08-20T02:22:16;14.70;;;10.17;;
4915;SDS011;70796;52.406;13.230;2023-08-20T02:24:43;17.40;;;10.90;;
4915;SDS011;70796;52.406;13.230;2023-08-20T02:27:09;13.30;;;10.70;;
4915;SDS011;70796;52.406;13.230;2023-08-20T02:29:36;16.07;;;10.50;;
4915;SDS011;70796;52.406;13.230;2023-08-20T02:32:03;14.17;;;10.43;;
4915;SDS011;70796;52.406;13.230;2023-08-20T02:34:29;13.17;;;10.57;;
4915;SDS011;70796;52.406;13.230;2023-08-20T02:36:56;13.37;;;11.30;;
4915;SDS011;70796;52.406;13.230;2023-08-20T02:39:23;14.37;;;11.07;;
4915;SDS011;70796;52.406;13.230;2023-08-20T02:41:51;13.80;;;11.67;;
4915;SDS011;70796;52.406;13.230;2023-08-20T02:44:17;14.10;;;11.20;;
4915;SDS011;70796;52.406;13.230;2023-08-20T02:46:45;12.30;;;10.70;;
4915;SDS011;70796;52.406;13.230;2023-08-20T02:49:12;16.17;;;11.23;;
4915;SDS011;70796;52.406;13.230;2023-08-20T02:51:40;16.23;;;11.20;;
4915;SDS011;70796;52.406;13.230;2023-08-20T02:54:07;18.80;;;10.90;;
4915;SDS011;70796;52.406;13.230;2023-08-20T02:56:34;12.80;;;11.50;;
4915;SDS011;70796;52.406;13.230;2023-08-20T02:59:01;12.67;;;11.20;;
4915;SDS011;70796;52.406;13.230;2023-08-20T03:01:28;13.57;;;11.70;;
4915;SDS011;70796;52.406;13.230;2023-08-20T03:03:55;14.03;;;10.57;;
4915;SDS011;70796;52.406;13.230;2023-08-20T03:06:22;13.50;;;11.27;;
4915;SDS011;70796;52.406;13.230;2023-08-20T03:08:49;12.63;;;11.00;;
4915;SDS011;70796;52.406;13.230;2023-08-20T03:11:15;14.00;;;12.00;;
4915;SDS011;70796;52.406;13.230;2023-08-20T03:13:43;15.53;;;12.67;;
4915;SDS011;70796;52.406;13.230;2023-08-20T03:16:10;16.10;;;12.13;;
4915;SDS011;70796;52.406;13.230;2023-08-20T03:18:37;19.20;;;12.53;;
4915;SDS011;70796;52.406;13.230;2023-08-20T03:21:03;16.07;;;12.40;;
4915;SDS011;70796;52.406;13.230;2023-08-20T03:23:30;14.40;;;11.47;;
4915;SDS011;70796;52.406;13.230;2023-08-20T03:25:58;14.90;;;11.33;;
4915;SDS011;70796;52.406;13.230;2023-08-20T03:28:25;15.37;;;11.40;;
4915;SDS011;70796;52.406;13.230;2023-08-20T03:30:59;21.20;;;11.70;;
4915;SDS011;70796;52.406;13.230;2023-08-20T03:33:27;20.23;;;12.83;;
4915;SDS011;70796;52.406;13.230;2023-08-20T03:35:53;16.37;;;12.60;;
4915;SDS011;70796;52.406;13.230;2023-08-20T03:38:25;24.47;;;13.70;;
4915;SDS011;70796;52.406;13.230;2023-08-20T03:40:54;17.13;;;12.80;;
4915;SDS011;70796;52.406;13.230;2023-08-20T03:43:21;18.17;;;13.10;;
4915;SDS011;70796;52.406;13.230;2023-08-20T03:45:51;22.50;;;13.13;;
4915;SDS011;70796;52.406;13.230;2023-08-20T03:48:19;19.90;;;12.90;;
4915;SDS011;70796;52.406;13.230;2023-08-20T03:50:47;18.17;;;13.30;;
4915;SDS011;70796;52.406;13.230;2023-08-20T03:53:15;18.50;;;12.40;;
4915;SDS011;70796;52.406;13.230;2023-08-20T03:55:47;15.03;;;12.80;;
4915;SDS011;70796;52.406;13.230;2023-08-20T03:58:14;16.43;;;13.40;;
4915;SDS011;70796;52.406;13.230;2023-08-20T04:00:41;20.37;;;14.20;;
4915;SDS011;70796;52.406;13.230;2023-08-20T04:03:08;14.70;;;12.97;;
4915;SDS011;70796;52.406;13.230;2023-08-20T04:05:37;22.50;;;15.60;;
4915;SDS011;70796;52.406;13.230;2023-08-20T04:08:05;19.60;;;13.93;;
4915;SDS011;70796;52.406;13.230;2023-08-20T04:10:33;19.30;;;15.43;;
4915;SDS011;70796;52.406;13.230;2023-08-20T04:13:01;24.13;;;15.50;;
4915;SDS011;70796;52.406;13.230;2023-08-20T04:15:30;17.57;;;15.00;;
4915;SDS011;70796;52.406;13.230;2023-08-20T04:17:59;19.30;;;16.10;;
4915;SDS011;70796;52.406;13.230;2023-08-20T04:20:27;18.93;;;14.60;;
4915;SDS011;70796;52.406;13.230;2023-08-20T04:22:54;20.43;;;14.20;;
4915;SDS011;70796;52.406;13.230;2023-08-20T04:25:22;20.10;;;15.30;;
4915;SDS011;70796;52.406;13.230;2023-08-20T04:27:49;18.07;;;14.70;;
4915;SDS011;70796;52.406;13.230;2023-08-20T04:30:16;19.63;;;15.43;;
4915;SDS011;70796;52.406;13.230;2023-08-20T04:32:43;19.30;;;16.13;;
4915;SDS011;70796;52.406;13.230;2023-08-20T04:35:09;19.47;;;14.40;;
4915;SDS011;70796;52.406;13.230;2023-08-20T04:37:37;22.13;;;15.60;;
4915;SDS011;70796;52.406;13.230;2023-08-20T04:40:04;18.07;;;14.33;;
4915;SDS011;70796;52.406;13.230;2023-08-20T04:42:31;17.27;;;13.87;;
4915;SDS011;70796;52.406;13.230;2023-08-20T04:45:01;19.40;;;14.73;;
4915;SDS011;70796;52.406;13.230;2023-08-20T04:47:28;16.03;;;13.60;;
4915;SDS011;70796;52.406;13.230;2023-08-20T04:49:55;17.87;;;13.73;;
4915;SDS011;70796;52.406;13.230;2023-08-20T04:52:22;20.07;;;13.90;;
4915;SDS011;70796;52.406;13.230;2023-08-20T04:54:49;18.97;;;14.00;;
4915;SDS011;70796;52.406;13.230;2023-08-20T04:57:17;14.43;;;12.90;;
4915;SDS011;70796;52.406;13.230;2023-08-20T04:59:45;23.47;;;14.37;;
4915;SDS011;70796;52.406;13.230;2023-08-20T05:02:36;16.67;;;14.20;;
4915;SDS011;70796;52.406;13.230;2023-08-20T05:05:05;13.97;;;12.50;;
4915;SDS011;70796;52.406;13.230;2023-08-20T05:07:31;19.83;;;13.70;;
4915;SDS011;70796;52.406;13.230;2023-08-20T05:09:59;15.17;;;11.03;;
4915;SDS011;70796;52.406;13.230;2023-08-20T05:12:25;27.93;;;10.87;;
4915;SDS011;70796;52.406;13.230;2023-08-20T05:14:52;14.97;;;10.30;;
4915;SDS011;70796;52.406;13.230;2023-08-20T05:17:19;13.70;;;10.83;;
4915;SDS011;70796;52.406;13.230;2023-08-20T05:19:46;20.43;;;12.07;;
4915;SDS011;70796;52.406;13.230;2023-08-20T05:22:13;19.80;;;11.57;;
4915;SDS011;70796;52.406;13.230;2023-08-20T05:24:40;15.40;;;12.27;;
4915;SDS011;70796;52.406;13.230;2023-08-20T05:29:34;17.10;;;12.47;;
4915;SDS011;70796;52.406;13.230;2023-08-20T05:32:02;19.73;;;13.47;;
4915;SDS011;70796;52.406;13.230;2023-08-20T05:34:29;14.93;;;12.47;;
4915;SDS011;70796;52.406;13.230;2023-08-20T05:36:56;16.67;;;11.33;;
4915;SDS011;70796;52.406;13.230;2023-08-20T05:39:23;19.63;;;12.20;;
4915;SDS011;70796;52.406;13.230;2023-08-20T05:41:50;17.90;;;12.20;;
4915;SDS011;70796;52.406;13.230;2023-08-20T05:44:19;14.80;;;11.77;;
4915;SDS011;70796;52.406;13.230;2023-08-20T05:46:46;16.73;;;12.23;;
4915;SDS011;70796;52.406;13.230;2023-08-20T05:49:13;14.37;;;11.63;;
4915;SDS011;70796;52.406;13.230;2023-08-20T05:51:42;16.00;;;10.77;;
4915;SDS011;70796;52.406;13.230;2023-08-20T05:54:09;11.53;;;9.83;;
4915;SDS011;70796;52.406;13.230;2023-08-20T05:56:36;16.93;;;10.27;;
4915;SDS011;70796;52.406;13.230;2023-08-20T05:59:03;13.40;;;9.07;;
4915;SDS011;70796;52.406;13.230;2023-08-20T06:01:32;14.73;;;9.03;;
4915;SDS011;70796;52.406;13.230;2023-08-20T06:03:59;12.40;;;9.70;;
4915;SDS011;70796;52.406;13.230;2023-08-20T06:06:27;13.50;;;9.30;;
4915;SDS011;70796;52.406;13.230;2023-08-20T06:08:53;12.53;;;9.03;;
4915;SDS011;70796;52.406;13.230;2023-08-20T06:11:34;13.37;;;10.50;;
4915;SDS011;70796;52.406;13.230;2023-08-20T06:14:01;14.20;;;8.97;;
4915;SDS011;70796;52.406;13.230;2023-08-20T06:16:27;12.60;;;8.40;;
4915;SDS011;70796;52.406;13.230;2023-08-20T06:18:54;12.83;;;8.60;;
4915;SDS011;70796;52.406;13.230;2023-08-20T06:21:22;11.27;;;8.00;;
4915;SDS011;70796;52.406;13.230;2023-08-20T06:23:48;9.43;;;7.60;;
4915;SDS011;70796;52.406;13.230;2023-08-20T06:26:15;18.63;;;8.00;;
4915;SDS011;70796;52.406;13.230;2023-08-20T06:28:41;8.60;;;7.20;;
4915;SDS011;70796;52.406;13.230;2023-08-20T06:31:07;12.63;;;7.87;;
4915;SDS011;70796;52.406;13.230;2023-08-20T06:33:34;8.60;;;7.00;;
4915;SDS011;70796;52.406;13.230;2023-08-20T06:36:00;13.80;;;6.70;;
4915;SDS011;70796;52.406;13.230;2023-08-20T06:38:27;11.30;;;6.90;;
4915;SDS011;70796;52.406;13.230;2023-08-20T06:40:56;9.80;;;6.70;;
4915;SDS011;70796;52.406;13.230;2023-08-20T06:43:22;10.57;;;7.20;;
4915;SDS011;70796;52.406;13.230;2023-08-20T06:45:49;9.13;;;7.10;;
4915;SDS011;70796;52.406;13.230;2023-08-20T06:48:15;8.47;;;5.93;;
4915;SDS011;70796;52.406;13.230;2023-08-20T06:50:43;14.90;;;6.60;;
4915;SDS011;70796;52.406;13.230;2023-08-20T06:53:10;12.00;;;5.63;;
4915;SDS011;70796;52.406;13.230;2023-08-20T06:55:37;14.50;;;6.57;;
4915;SDS011;70796;52.406;13.230;2023-08-20T06:58:04;6.57;;;5.47;;
4915;SDS011;70796;52.406;13.230;2023-08-20T07:00:31;7.37;;;5.33;;
4915;SDS011;70796;52.406;13.230;2023-08-20T07:02:58;9.40;;;5.10;;
4915;SDS011;70796;52.406;13.230;2023-08-20T07:05:25;4.77;;;4.27;;
4915;SDS011;70796;52.406;13.230;2023-08-20T07:07:52;5.20;;;4.37;;
4915;SDS011;70796;52.406;13.230;2023-08-20T07:10:19;7.17;;;4.10;;
4915;SDS011;70796;52.406;13.230;2023-08-20T07:12:46;5.53;;;4.10;;
4915;SDS011;70796;52.406;13.230;2023-08-20T07:15:14;8.93;;;3.80;;
4915;SDS011;70796;52.406;13.230;2023-08-20T07:17:42;7.60;;;3.83;;
4915;SDS011;70796;52.406;13.230;2023-08-20T07:20:11;5.90;;;3.93;;
4915;SDS011;70796;52.406;13.230;2023-08-20T07:22:38;8.70;;;5.00;;
4915;SDS011;70796;52.406;13.230;2023-08-20T07:25:08;5.60;;;4.33;;
4915;SDS011;70796;52.406;13.230;2023-08-20T07:27:34;5.73;;;4.77;;
4915;SDS011;70796;52.406;13.230;2023-08-20T07:30:01;6.07;;;4.20;;
4915;SDS011;70796;52.406;13.230;2023-08-20T07:32:29;6.20;;;4.00;;
4915;SDS011;70796;52.406;13.230;2023-08-20T07:34:56;5.67;;;3.80;;
4915;SDS011;70796;52.406;13.230;2023-08-20T07:37:22;6.20;;;3.97;;
4915;SDS011;70796;52.406;13.230;2023-08-20T07:39:48;4.90;;;3.40;;
4915;SDS011;70796;52.406;13.230;2023-08-20T07:42:15;5.50;;;3.60;;
4915;SDS011;70796;52.406;13.230;2023-08-20T07:44:41;4.80;;;3.67;;
4915;SDS011;70796;52.406;13.230;2023-08-20T07:47:08;5.03;;;3.73;;
4915;SDS011;70796;52.406;13.230;2023-08-20T07:49:34;3.80;;;3.27;;
4915;SDS011;70796;52.406;13.230;2023-08-20T07:52:01;4.97;;;3.17;;
4915;SDS011;70796;52.406;13.230;2023-08-20T07:54:28;5.60;;;3.60;;
4915;SDS011;70796;52.406;13.230;2023-08-20T07:56:55;3.90;;;3.00;;
4915;SDS011;70796;52.406;13.230;2023-08-20T07:59:22;3.63;;;3.03;;
4915;SDS011;70796;52.406;13.230;2023-08-20T08:01:48;5.70;;;3.00;;
4915;SDS011;70796;52.406;13.230;2023-08-20T08:04:15;3.50;;;2.00;;
4915;SDS011;70796;52.406;13.230;2023-08-20T08:06:41;2.03;;;1.90;;
4915;SDS011;70796;52.406;13.230;2023-08-20T08:09:29;4.63;;;3.50;;
4915;SDS011;70796;52.406;13.230;2023-08-20T08:11:57;7.53;;;2.80;;
4915;SDS011;70796;52.406;13.230;2023-08-20T08:14:25;3.83;;;1.80;;
4915;SDS011;70796;52.406;13.230;2023-08-20T08:16:51;5.63;;;3.30;;
4915;SDS011;70796;52.406;13.230;2023-08-20T08:19:18;3.37;;;2.60;;
4915;SDS011;70796;52.406;13.230;2023-08-20T08:21:47;6.27;;;2.10;;
4915;SDS011;70796;52.406;13.230;2023-08-20T08:24:13;3.20;;;2.00;;
4915;SDS011;70796;52.406;13.230;2023-08-20T08:26:40;2.30;;;1.93;;
4915;SDS011;70796;52.406;13.230;2023-08-20T08:29:07;2.70;;;2.30;;
4915;SDS011;70796;52.406;13.230;2023-08-20T08:31:34;3.00;;;1.77;;
4915;SDS011;70796;52.406;13.230;2023-08-20T08:34:01;3.03;;;2.10;;
4915;SDS011;70796;52.406;13.230;2023-08-20T08:36:29;1.87;;;1.77;;
4915;SDS011;70796;52.406;13.230;2023-08-20T08:38:55;2.27;;;2.10;;
4915;SDS011;70796;52.406;13.230;2023-08-20T08:41:22;3.97;;;1.70;;
4915;SDS011;70796;52.406;13.230;2023-08-20T08:43:53;7.27;;;2.47;;
4915;SDS011;70796;52.406;13.230;2023-08-20T08:46:19;2.90;;;2.10;;
4915;SDS011;70796;52.406;13.230;2023-08-20T08:48:47;3.47;;;1.90;;
4915;SDS011;70796;52.406;13.230;2023-08-20T08:51:13;2.70;;;1.80;;
4915;SDS011;70796;52.406;13.230;2023-08-20T08:53:42;5.37;;;2.13;;
4915;SDS011;70796;52.406;13.230;2023-08-20T08:56:09;3.70;;;2.20;;
4915;SDS011;70796;52.406;13.230;2023-08-20T08:58:35;1.97;;;1.60;;
4915;SDS011;70796;52.406;13.230;2023-08-20T09:01:02;2.83;;;2.20;;
4915;SDS011;70796;52.406;13.230;2023-08-20T09:03:29;3.50;;;2.17;;
4915;SDS011;70796;52.406;13.230;2023-08-20T09:05:57;6.17;;;2.50;;
4915;SDS011;70796;52.406;13.230;2023-08-20T09:08:28;4.20;;;2.40;;
4915;SDS011;70796;52.406;13.230;2023-08-20T09:10:55;5.60;;;2.63;;
4915;SDS011;70796;52.406;13.230;2023-08-20T09:13:26;6.70;;;2.40;;
4915;SDS011;70796;52.406;13.230;2023-08-20T09:15:53;3.83;;;2.07;;
4915;SDS011;70796;52.406;13.230;2023-08-20T09:18:19;3.33;;;2.03;;
4915;SDS011;70796;52.406;13.230;2023-08-20T09:20:49;4.83;;;1.70;;
4915;SDS011;70796;52.406;13.230;2023-08-20T09:23:16;7.90;;;2.30;;
4915;SDS011;70796;52.406;13.230;2023-08-20T09:25:42;2.43;;;2.10;;
4915;SDS011;70796;52.406;13.230;2023-08-20T09:28:09;2.73;;;1.90;;
4915;SDS011;70796;52.406;13.230;2023-08-20T09:30:36;2.20;;;2.00;;
4915;SDS011;70796;52.406;13.230;2023-08-20T09:33:07;3.90;;;2.03;;
4915;SDS011;70796;52.406;13.230;2023-08-20T09:35:39;4.43;;;2.60;;
4915;SDS011;70796;52.406;13.230;2023-08-20T09:38:14;2.83;;;2.20;;
4915;SDS011;70796;52.406;13.230;2023-08-20T09:40:40;4.63;;;2.37;;
4915;SDS011;70796;52.406;13.230;2023-08-20T09:43:07;2.27;;;2.07;;
4915;SDS011;70796;52.406;13.230;2023-08-20T09:45:38;4.33;;;2.60;;
4915;SDS011;70796;52.406;13.230;2023-08-20T09:48:05;3.53;;;2.23;;
4915;SDS011;70796;52.406;13.230;2023-08-20T09:50:35;2.43;;;2.00;;
4915;SDS011;70796;52.406;13.230;2023-08-20T09:53:15;3.97;;;2.53;;
4915;SDS011;70796;52.406;13.230;2023-08-20T09:55:43;2.70;;;2.30;;
4915;SDS011;70796;52.406;13.230;2023-08-20T09:58:11;2.10;;;1.90;;
4915;SDS011;70796;52.406;13.230;2023-08-20T10:00:37;2.90;;;2.37;;
4915;SDS011;70796;52.406;13.230;2023-08-20T10:03:05;3.80;;;2.53;;
4915;SDS011;70796;52.406;13.230;2023-08-20T10:05:32;4.47;;;2.60;;
4915;SDS011;70796;52.406;13.230;2023-08-20T10:08:00;3.47;;;2.30;;
4915;SDS011;70796;52.406;13.230;2023-08-20T10:10:27;3.93;;;2.40;;
4915;SDS011;70796;52.406;13.230;2023-08-20T10:12:54;2.77;;;2.40;;
4915;SDS011;70796;52.406;13.230;2023-08-20T10:15:24;3.60;;;2.40;;
4915;SDS011;70796;52.406;13.230;2023-08-20T10:17:53;3.40;;;2.70;;
4915;SDS011;70796;52.406;13.230;2023-08-20T10:20:19;7.10;;;2.30;;
4915;SDS011;70796;52.406;13.230;2023-08-20T10:22:49;3.37;;;2.07;;
4915;SDS011;70796;52.406;13.230;2023-08-20T10:25:23;3.80;;;2.10;;
4915;SDS011;70796;52.406;13.230;2023-08-20T10:27:50;3.53;;;2.53;;
4915;SDS011;70796;52.406;13.230;2023-08-20T10:30:17;2.67;;;2.13;;
4915;SDS011;70796;52.406;13.230;2023-08-20T10:32:49;2.97;;;2.30;;
4915;SDS011;70796;52.406;13.230;2023-08-20T10:35:17;5.57;;;2.30;;
4915;SDS011;70796;52.406;13.230;2023-08-20T10:46:06;3.73;;;2.87;;
4915;SDS011;70796;52.406;13.230;2023-08-20T10:48:38;4.23;;;2.30;;
4915;SDS011;70796;52.406;13.230;2023-08-20T10:51:08;3.40;;;2.40;;
4915;SDS011;70796;52.406;13.230;2023-08-20T10:53:35;3.87;;;2.10;;
4915;SDS011;70796;52.406;13.230;2023-08-20T10:56:08;3.73;;;2.50;;
4915;SDS011;70796;52.406;13.230;2023-08-20T10:58:44;4.50;;;2.30;;
4915;SDS011;70796;52.406;13.230;2023-08-20T11:01:15;2.60;;;2.40;;
4915;SDS011;70796;52.406;13.230;2023-08-20T11:03:43;1.90;;;1.80;;
4915;SDS011;70796;52.406;13.230;2023-08-20T11:06:10;3.97;;;2.50;;
4915;SDS011;70796;52.406;13.230;2023-08-20T11:08:37;4.70;;;2.57;;
4915;SDS011;70796;52.406;13.230;2023-08-20T11:11:04;2.97;;;2.60;;
4915;SDS011;70796;52.406;13.230;2023-08-20T11:13:32;2.97;;;2.67;;
4915;SDS011;70796;52.406;13.230;2023-08-20T11:15:59;5.00;;;2.40;;
4915;SDS011;70796;52.406;13.230;2023-08-20T11:18:26;5.37;;;3.13;;
4915;SDS011;70796;52.406;13.230;2023-08-20T11:20:53;3.20;;;2.47;;
4915;SDS011;70796;52.406;13.230;2023-08-20T11:23:20;2.90;;;2.53;;
4915;SDS011;70796;52.406;13.230;2023-08-20T11:25:46;3.90;;;2.70;;
4915;SDS011;70796;52.406;13.230;2023-08-20T11:28:13;3.13;;;2.57;;
4915;SDS011;70796;52.406;13.230;2023-08-20T11:30:39;5.27;;;2.40;;
4915;SDS011;70796;52.406;13.230;2023-08-20T11:33:06;4.53;;;2.40;;
4915;SDS011;70796;52.406;13.230;2023-08-20T11:35:33;2.63;;;2.43;;
4915;SDS011;70796;52.406;13.230;2023-08-20T11:38:02;2.73;;;2.53;;
4915;SDS011;70796;52.406;13.230;2023-08-20T11:40:29;3.40;;;2.40;;
4915;SDS011;70796;52.406;13.230;2023-08-20T11:42:55;2.70;;;2.50;;
4915;SDS011;70796;52.406;13.230;2023-08-20T11:45:22;2.83;;;2.60;;
4915;SDS011;70796;52.406;13.230;2023-08-20T11:47:48;6.30;;;2.70;;
4915;SDS011;70796;52.406;13.230;2023-08-20T11:50:14;3.60;;;2.40;;
4915;SDS011;70796;52.406;13.230;2023-08-20T11:52:41;5.40;;;2.80;;
4915;SDS011;70796;52.406;13.230;2023-08-20T11:55:07;2.47;;;1.90;;
4915;SDS011;70796;52.406;13.230;2023-08-20T11:57:35;2.50;;;1.80;;
4915;SDS011;70796;52.406;13.230;2023-08-20T12:00:03;2.63;;;2.10;;
4915;SDS011;70796;52.406;13.230;2023-08-20T12:02:42;2.33;;;2.17;;
4915;SDS011;70796;52.406;13.230;2023-08-20T12:05:10;2.93;;;1.63;;
4915;SDS011;70796;52.406;13.230;2023-08-20T12:07:38;2.00;;;1.90;;
4915;SDS011;70796;52.406;13.230;2023-08-20T12:10:20;2.40;;;2.20;;
4915;SDS011;70796;52.406;13.230;2023-08-20T12:12:50;2.10;;;1.87;;
4915;SDS011;70796;52.406;13.230;2023-08-20T12:15:17;5.77;;;2.00;;
4915;SDS011;70796;52.406;13.230;2023-08-20T12:18:01;1.97;;;1.73;;
4915;SDS011;70796;52.406;13.230;2023-08-20T12:20:29;2.00;;;1.83;;
4915;SDS011;70796;52.406;13.230;2023-08-20T12:22:57;5.30;;;1.47;;
4915;SDS011;70796;52.406;13.230;2023-08-20T12:25:24;2.93;;;1.70;;
4915;SDS011;70796;52.406;13.230;2023-08-20T12:27:50;2.33;;;2.13;;
4915;SDS011;70796;52.406;13.230;2023-08-20T12:30:16;3.63;;;1.80;;
4915;SDS011;70796;52.406;13.230;2023-08-20T12:32:43;19.00;;;1.83;;
4915;SDS011;70796;52.406;13.230;2023-08-20T12:35:09;7.00;;;1.77;;
4915;SDS011;70796;52.406;13.230;2023-08-20T12:37:36;4.70;;;1.67;;
4915;SDS011;70796;52.406;13.230;2023-08-20T12:40:03;5.23;;;1.93;;
4915;SDS011;70796;52.406;13.230;2023-08-20T12:42:38;2.90;;;2.20;;
4915;SDS011;70796;52.406;13.230;2023-08-20T12:45:08;2.17;;;1.80;;
4915;SDS011;70796;52.406;13.230;2023-08-20T12:47:34;3.27;;;1.90;;
4915;SDS011;70796;52.406;13.230;2023-08-20T12:50:01;2.30;;;1.10;;
4915;SDS011;70796;52.406;13.230;2023-08-20T12:52:31;2.00;;;1.70;;
4915;SDS011;70796;52.406;13.230;2023-08-20T12:54:58;2.03;;;1.47;;
4915;SDS011;70796;52.406;13.230;2023-08-20T12:57:24;3.03;;;1.40;;
4915;SDS011;70796;52.406;13.230;2023-08-20T12:59:50;2.70;;;1.90;;
4915;SDS011;70796;52.406;13.230;2023-08-20T13:02:17;2.00;;;1.30;;
4915;SDS011;70796;52.406;13.230;2023-08-20T13:04:44;2.00;;;1.47;;
4915;SDS011;70796;52.406;13.230;2023-08-20T13:07:11;10.53;;;1.70;;
4915;SDS011;70796;52.406;13.230;2023-08-20T13:09:38;2.63;;;1.80;;
4915;SDS011;70796;52.406;13.230;2023-08-20T13:12:05;2.17;;;1.83;;
4915;SDS011;70796;52.406;13.230;2023-08-20T13:14:35;3.83;;;1.30;;
4915;SDS011;70796;52.406;13.230;2023-08-20T13:17:01;3.00;;;1.47;;
4915;SDS011;70796;52.406;13.230;2023-08-20T13:19:28;2.17;;;1.70;;
4915;SDS011;70796;52.406;13.230;2023-08-20T13:21:55;2.80;;;1.50;;
4915;SDS011;70796;52.406;13.230;2023-08-20T13:24:21;2.70;;;1.33;;
4915;SDS011;70796;52.406;13.230;2023-08-20T13:26:47;3.50;;;1.50;;
4915;SDS011;70796;52.406;13.230;2023-08-20T13:29:14;4.53;;;1.67;;
4915;SDS011;70796;52.406;13.230;2023-08-20T13:31:43;3.60;;;1.63;;
4915;SDS011;70796;52.406;13.230;2023-08-20T13:34:10;2.93;;;1.80;;
4915;SDS011;70796;52.406;13.230;2023-08-20T13:36:36;2.27;;;1.90;;
4915;SDS011;70796;52.406;13.230;2023-08-20T13:39:04;3.23;;;1.77;;
4915;SDS011;70796;52.406;13.230;2023-08-20T13:41:31;2.90;;;1.90;;
4915;SDS011;70796;52.406;13.230;2023-08-20T13:43:57;4.30;;;2.00;;
4915;SDS011;70796;52.406;13.230;2023-08-20T13:46:24;2.17;;;1.87;;
4915;SDS011;70796;52.406;13.230;2023-08-20T13:48:50;2.50;;;1.77;;
4915;SDS011;70796;52.406;13.230;2023-08-20T13:51:16;3.07;;;1.77;;
4915;SDS011;70796;52.406;13.230;2023-08-20T13:53:43;2.20;;;1.70;;
4915;SDS011;70796;52.406;13.230;2023-08-20T13:56:10;2.37;;;1.50;;
4915;SDS011;70796;52.406;13.230;2023-08-20T13:58:37;4.60;;;1.97;;
4915;SDS011;70796;52.406;13.230;2023-08-20T14:01:06;5.80;;;2.30;;
4915;SDS011;70796;52.406;13.230;2023-08-20T14:03:33;2.40;;;1.70;;
4915;SDS011;70796;52.406;13.230;2023-08-20T14:05:59;3.93;;;2.13;;
4915;SDS011;70796;52.406;13.230;2023-08-20T14:08:25;2.53;;;2.00;;
4915;SDS011;70796;52.406;13.230;2023-08-20T14:10:51;4.47;;;2.23;;
4915;SDS011;70796;52.406;13.230;2023-08-20T14:13:18;3.57;;;2.10;;
4915;SDS011;70796;52.406;13.230;2023-08-20T14:15:44;2.87;;;1.73;;
4915;SDS011;70796;52.406;13.230;2023-08-20T14:18:11;2.13;;;1.90;;
4915;SDS011;70796;52.406;13.230;2023-08-20T14:20:37;4.53;;;2.30;;
4915;SDS011;70796;52.406;13.230;2023-08-20T14:23:03;3.60;;;2.17;;
4915;SDS011;70796;52.406;13.230;2023-08-20T14:25:30;7.60;;;2.97;;
4915;SDS011;70796;52.406;13.230;2023-08-20T14:27:56;3.20;;;2.00;;
4915;SDS011;70796;52.406;13.230;2023-08-20T14:30:22;9.13;;;3.87;;
4915;SDS011;70796;52.406;13.230;2023-08-20T14:32:49;10.53;;;6.40;;
4915;SDS011;70796;52.406;13.230;2023-08-20T14:35:15;8.63;;;3.50;;
4915;SDS011;70796;52.406;13.230;2023-08-20T14:37:41;4.70;;;3.17;;
4915;SDS011;70796;52.406;13.230;2023-08-20T14:40:09;12.53;;;8.40;;
4915;SDS011;70796;52.406;13.230;2023-08-20T14:42:36;1.80;;;1.30;;
4915;SDS011;70796;52.406;13.230;2023-08-20T14:45:03;13.60;;;4.40;;
4915;SDS011;70796;52.406;13.230;2023-08-20T14:47:30;10.67;;;5.40;;
4915;SDS011;70796;52.406;13.230;2023-08-20T14:49:57;3.20;;;2.10;;
4915;SDS011;70796;52.406;13.230;2023-08-20T14:52:24;11.03;;;6.90;;
4915;SDS011;70796;52.406;13.230;2023-08-20T14:54:50;3.30;;;1.80;;
4915;SDS011;70796;52.406;13.230;2023-08-20T14:57:18;2.80;;;1.53;;